Ana Sayfa
METAR-TAF:

METAR-TAF

Havaalanları :

Wangaratta, Avustralya

Enlem: 36-24-57S, Boylam: 146-18-25E, yükseklik: 154 m

Güncel hava durumu gözlemi

Rapor saat 11:00 UTC de 50 dakika önce yapıldı.
Rüzgar güneybatıdan 7 kt
Sıcaklık 27°C
Nem 21%
Basınç 1012 hPa
Görüş mesafesi 10 km veya daha fazla

METAR: YWGT 291100Z AUTO 22007KT 9999 // NCD 27/03 Q1012

Saat: 22:50 (11:50 UTC)

Tahmin

Rapor saat 07:03 UTC de 4 saat ve 47 dakika önce yapıldı.
Ayın 29'si saat 08 UTC'den ayın 29'si saat 20 UTC'ye kadar geçerli Tahmin
Rüzgar güneybatıdan 8 kt
Görüş mesafesi 10 km veya daha fazla
1500 m altında bulut yok ve kümülonimbus yok
Dönüşüyor
ayın 29'si saat 10 UTC'den ayın 29'si saat 12 UTC'ye kadar
Rüzgar değişken yönden 5 kt
Görüş mesafesi 10 km veya daha fazla
1500 m altında bulut yok ve kümülonimbus yok

TAF: YWGT 290703Z 2908/2920 23008KT CAVOK BECMG 2910/2912 VRB05KT CAVOK

4.000'den fazla havaalanı için hava durumu gözlemleri ve tahminleri (METAR ve TAF raporları).

Kullanılabilir istasyonlar harita üzerinde sarı ve kırmızı noktalarla gösterilir.

İstasyonun adını görmek için fareyi noktanın üzerinde gezdirin.

Sonrasında hava gözlem ve tahminlerini görmek için tıklayın.

Haritayı değiştirmek için: yaklaştırmak için siyah artı işaretli yeşil düğmeye ve uzaklaştırmak için de eksi işaretli düğmeye hızla tıklayın; bitişik haritalar için yeşil okları kullanın.


METAR-TAF: